sensor_id;sensor_type;location;lat;lon;timestamp;P1;durP1;ratioP1;P2;durP2;ratioP2
68196;SDS011;55019;49.382;11.358;2023-03-25T00:02:06;1.55;;;0.95;;
68196;SDS011;55019;49.382;11.358;2023-03-25T00:04:32;2.67;;;0.77;;
68196;SDS011;55019;49.382;11.358;2023-03-25T00:06:59;2.92;;;1.05;;
68196;SDS011;55019;49.382;11.358;2023-03-25T00:09:25;1.23;;;0.68;;
68196;SDS011;55019;49.382;11.358;2023-03-25T00:11:51;2.15;;;1.10;;
68196;SDS011;55019;49.382;11.358;2023-03-25T00:14:20;2.03;;;0.77;;
68196;SDS011;55019;49.382;11.358;2023-03-25T00:16:45;2.75;;;1.02;;
68196;SDS011;55019;49.382;11.358;2023-03-25T00:19:13;1.17;;;0.68;;
68196;SDS011;55019;49.382;11.358;2023-03-25T00:21:40;2.22;;;0.73;;
68196;SDS011;55019;49.382;11.358;2023-03-25T00:24:11;2.78;;;1.10;;
68196;SDS011;55019;49.382;11.358;2023-03-25T00:26:42;1.20;;;0.65;;
68196;SDS011;55019;49.382;11.358;2023-03-25T00:29:10;2.75;;;1.38;;
68196;SDS011;55019;49.382;11.358;2023-03-25T00:31:38;1.90;;;1.00;;
68196;SDS011;55019;49.382;11.358;2023-03-25T00:34:04;1.20;;;0.60;;
68196;SDS011;55019;49.382;11.358;2023-03-25T00:36:30;0.77;;;0.50;;
68196;SDS011;55019;49.382;11.358;2023-03-25T00:38:56;0.95;;;0.90;;
68196;SDS011;55019;49.382;11.358;2023-03-25T00:41:23;2.20;;;0.80;;
68196;SDS011;55019;49.382;11.358;2023-03-25T00:43:50;1.75;;;0.88;;
68196;SDS011;55019;49.382;11.358;2023-03-25T00:46:18;1.48;;;0.80;;
68196;SDS011;55019;49.382;11.358;2023-03-25T00:48:44;1.58;;;0.88;;
68196;SDS011;55019;49.382;11.358;2023-03-25T00:51:10;2.90;;;0.60;;
68196;SDS011;55019;49.382;11.358;2023-03-25T00:53:38;3.83;;;1.02;;
68196;SDS011;55019;49.382;11.358;2023-03-25T00:56:04;1.23;;;0.60;;
68196;SDS011;55019;49.382;11.358;2023-03-25T00:58:31;1.40;;;0.60;;
68196;SDS011;55019;49.382;11.358;2023-03-25T01:00:57;1.25;;;0.60;;
68196;SDS011;55019;49.382;11.358;2023-03-25T01:03:24;1.80;;;0.80;;
68196;SDS011;55019;49.382;11.358;2023-03-25T01:05:53;2.90;;;0.70;;
68196;SDS011;55019;49.382;11.358;2023-03-25T01:08:21;1.17;;;0.70;;
68196;SDS011;55019;49.382;11.358;2023-03-25T01:10:52;1.77;;;0.90;;
68196;SDS011;55019;49.382;11.358;2023-03-25T01:13:18;2.88;;;1.52;;
68196;SDS011;55019;49.382;11.358;2023-03-25T01:15:44;1.95;;;0.73;;
68196;SDS011;55019;49.382;11.358;2023-03-25T01:18:10;3.92;;;0.90;;
68196;SDS011;55019;49.382;11.358;2023-03-25T01:20:37;1.55;;;0.60;;
68196;SDS011;55019;49.382;11.358;2023-03-25T01:23:04;4.78;;;1.13;;
68196;SDS011;55019;49.382;11.358;2023-03-25T01:25:29;3.92;;;1.42;;
68196;SDS011;55019;49.382;11.358;2023-03-25T01:27:55;1.20;;;0.60;;
68196;SDS011;55019;49.382;11.358;2023-03-25T01:30:21;3.28;;;0.70;;
68196;SDS011;55019;49.382;11.358;2023-03-25T01:32:46;6.22;;;2.10;;
68196;SDS011;55019;49.382;11.358;2023-03-25T01:35:12;9.63;;;2.92;;
68196;SDS011;55019;49.382;11.358;2023-03-25T01:37:38;1.88;;;0.80;;
68196;SDS011;55019;49.382;11.358;2023-03-25T01:40:04;6.15;;;2.33;;
68196;SDS011;55019;49.382;11.358;2023-03-25T01:42:32;7.18;;;3.03;;
68196;SDS011;55019;49.382;11.358;2023-03-25T01:45:31;3.85;;;1.77;;
68196;SDS011;55019;49.382;11.358;2023-03-25T01:47:57;3.08;;;0.57;;
68196;SDS011;55019;49.382;11.358;2023-03-25T01:50:27;2.78;;;0.68;;
68196;SDS011;55019;49.382;11.358;2023-03-25T01:52:54;0.95;;;0.40;;
68196;SDS011;55019;49.382;11.358;2023-03-25T01:55:22;2.40;;;0.90;;
68196;SDS011;55019;49.382;11.358;2023-03-25T01:57:48;3.13;;;1.00;;
68196;SDS011;55019;49.382;11.358;2023-03-25T02:00:18;1.85;;;0.65;;
68196;SDS011;55019;49.382;11.358;2023-03-25T02:02:46;1.15;;;0.65;;
68196;SDS011;55019;49.382;11.358;2023-03-25T02:07:44;1.83;;;0.30;;
68196;SDS011;55019;49.382;11.358;2023-03-25T02:10:13;1.95;;;0.47;;
68196;SDS011;55019;49.382;11.358;2023-03-25T02:12:40;1.55;;;0.52;;
68196;SDS011;55019;49.382;11.358;2023-03-25T02:15:06;1.38;;;0.55;;
68196;SDS011;55019;49.382;11.358;2023-03-25T02:25:35;1.80;;;0.30;;
68196;SDS011;55019;49.382;11.358;2023-03-25T02:37:02;0.60;;;0.30;;
68196;SDS011;55019;49.382;11.358;2023-03-25T02:40:05;0.57;;;0.10;;
68196;SDS011;55019;49.382;11.358;2023-03-25T02:42:40;1.65;;;0.30;;
68196;SDS011;55019;49.382;11.358;2023-03-25T02:45:21;1.55;;;0.30;;
68196;SDS011;55019;49.382;11.358;2023-03-25T02:48:02;3.83;;;1.30;;
68196;SDS011;55019;49.382;11.358;2023-03-25T02:50:42;1.63;;;0.30;;
68196;SDS011;55019;49.382;11.358;2023-03-25T02:53:14;3.60;;;0.30;;
68196;SDS011;55019;49.382;11.358;2023-03-25T02:55:45;1.65;;;0.22;;
68196;SDS011;55019;49.382;11.358;2023-03-25T02:58:14;0.63;;;0.20;;
68196;SDS011;55019;49.382;11.358;2023-03-25T03:00:43;0.43;;;0.25;;
68196;SDS011;55019;49.382;11.358;2023-03-25T03:03:10;1.50;;;0.30;;
68196;SDS011;55019;49.382;11.358;2023-03-25T03:05:47;0.75;;;0.10;;
68196;SDS011;55019;49.382;11.358;2023-03-25T03:22:12;1.20;;;0.28;;
68196;SDS011;55019;49.382;11.358;2023-03-25T03:33:12;2.20;;;0.17;;
68196;SDS011;55019;49.382;11.358;2023-03-25T03:38:37;1.42;;;0.20;;
68196;SDS011;55019;49.382;11.358;2023-03-25T03:41:08;0.30;;;0.10;;
68196;SDS011;55019;49.382;11.358;2023-03-25T03:43:39;1.65;;;0.22;;
68196;SDS011;55019;49.382;11.358;2023-03-25T03:46:26;0.93;;;0.03;;
68196;SDS011;55019;49.382;11.358;2023-03-25T03:48:57;1.27;;;0.13;;
68196;SDS011;55019;49.382;11.358;2023-03-25T03:51:27;0.52;;;0.20;;
68196;SDS011;55019;49.382;11.358;2023-03-25T03:53:59;1.27;;;0.40;;
68196;SDS011;55019;49.382;11.358;2023-03-25T03:56:43;2.05;;;0.10;;
68196;SDS011;55019;49.382;11.358;2023-03-25T04:00:00;0.60;;;0.10;;
68196;SDS011;55019;49.382;11.358;2023-03-25T04:02:28;0.28;;;0.05;;
68196;SDS011;55019;49.382;11.358;2023-03-25T04:05:03;3.08;;;0.28;;
68196;SDS011;55019;49.382;11.358;2023-03-25T04:07:39;1.00;;;0.20;;
68196;SDS011;55019;49.382;11.358;2023-03-25T04:10:10;1.38;;;0.17;;
68196;SDS011;55019;49.382;11.358;2023-03-25T04:12:53;1.80;;;0.93;;
68196;SDS011;55019;49.382;11.358;2023-03-25T04:15:22;1.95;;;0.20;;
68196;SDS011;55019;49.382;11.358;2023-03-25T04:17:48;0.38;;;0.10;;
68196;SDS011;55019;49.382;11.358;2023-03-25T04:20:17;0.10;;;0.00;;
68196;SDS011;55019;49.382;11.358;2023-03-25T04:22:48;1.48;;;0.20;;
68196;SDS011;55019;49.382;11.358;2023-03-25T04:25:16;0.52;;;0.10;;
68196;SDS011;55019;49.382;11.358;2023-03-25T04:27:42;3.00;;;0.17;;
68196;SDS011;55019;49.382;11.358;2023-03-25T04:30:13;5.95;;;0.30;;
68196;SDS011;55019;49.382;11.358;2023-03-25T04:32:43;0.25;;;0.00;;
68196;SDS011;55019;49.382;11.358;2023-03-25T04:35:13;1.08;;;0.30;;
68196;SDS011;55019;49.382;11.358;2023-03-25T04:37:41;0.98;;;0.10;;
68196;SDS011;55019;49.382;11.358;2023-03-25T04:40:12;2.50;;;0.20;;
68196;SDS011;55019;49.382;11.358;2023-03-25T04:42:40;3.65;;;0.47;;
68196;SDS011;55019;49.382;11.358;2023-03-25T04:45:07;1.75;;;0.13;;
68196;SDS011;55019;49.382;11.358;2023-03-25T04:47:38;0.45;;;0.17;;
68196;SDS011;55019;49.382;11.358;2023-03-25T04:50:28;0.20;;;0.00;;
68196;SDS011;55019;49.382;11.358;2023-03-25T04:52:54;0.85;;;0.00;;
68196;SDS011;55019;49.382;11.358;2023-03-25T04:55:24;0.63;;;0.25;;
68196;SDS011;55019;49.382;11.358;2023-03-25T04:57:51;0.20;;;0.00;;
68196;SDS011;55019;49.382;11.358;2023-03-25T05:00:22;1.70;;;0.10;;
68196;SDS011;55019;49.382;11.358;2023-03-25T05:02:50;0.20;;;0.20;;
68196;SDS011;55019;49.382;11.358;2023-03-25T05:05:19;0.32;;;0.20;;
68196;SDS011;55019;49.382;11.358;2023-03-25T05:07:48;0.63;;;0.20;;
68196;SDS011;55019;49.382;11.358;2023-03-25T05:10:19;0.55;;;0.08;;
68196;SDS011;55019;49.382;11.358;2023-03-25T05:12:46;2.13;;;0.00;;
68196;SDS011;55019;49.382;11.358;2023-03-25T05:15:12;0.70;;;0.10;;
68196;SDS011;55019;49.382;11.358;2023-03-25T05:17:38;0.85;;;0.10;;
68196;SDS011;55019;49.382;11.358;2023-03-25T05:20:06;0.68;;;0.10;;
68196;SDS011;55019;49.382;11.358;2023-03-25T05:22:36;1.10;;;0.10;;
68196;SDS011;55019;49.382;11.358;2023-03-25T05:25:06;1.27;;;0.20;;
68196;SDS011;55019;49.382;11.358;2023-03-25T05:27:33;1.08;;;0.10;;
68196;SDS011;55019;49.382;11.358;2023-03-25T05:29:59;0.82;;;0.00;;
68196;SDS011;55019;49.382;11.358;2023-03-25T05:32:27;1.80;;;0.15;;
68196;SDS011;55019;49.382;11.358;2023-03-25T05:35:00;1.73;;;0.10;;
68196;SDS011;55019;49.382;11.358;2023-03-25T05:37:26;3.22;;;0.28;;
68196;SDS011;55019;49.382;11.358;2023-03-25T05:39:53;0.95;;;0.10;;
68196;SDS011;55019;49.382;11.358;2023-03-25T05:42:19;0.52;;;0.10;;
68196;SDS011;55019;49.382;11.358;2023-03-25T05:44:48;1.15;;;0.40;;
68196;SDS011;55019;49.382;11.358;2023-03-25T05:47:16;0.25;;;0.03;;
68196;SDS011;55019;49.382;11.358;2023-03-25T05:49:46;2.00;;;0.10;;
68196;SDS011;55019;49.382;11.358;2023-03-25T05:52:13;1.40;;;0.10;;
68196;SDS011;55019;49.382;11.358;2023-03-25T05:54:41;0.03;;;0.03;;
68196;SDS011;55019;49.382;11.358;2023-03-25T05:57:09;0.63;;;0.10;;
68196;SDS011;55019;49.382;11.358;2023-03-25T05:59:36;1.17;;;0.00;;
68196;SDS011;55019;49.382;11.358;2023-03-25T06:02:05;0.10;;;0.00;;
68196;SDS011;55019;49.382;11.358;2023-03-25T06:04:41;1.60;;;0.10;;
68196;SDS011;55019;49.382;11.358;2023-03-25T06:07:07;1.65;;;0.10;;
68196;SDS011;55019;49.382;11.358;2023-03-25T06:09:47;0.95;;;0.10;;
68196;SDS011;55019;49.382;11.358;2023-03-25T06:12:15;0.75;;;0.10;;
68196;SDS011;55019;49.382;11.358;2023-03-25T06:14:42;2.53;;;0.10;;
68196;SDS011;55019;49.382;11.358;2023-03-25T06:17:16;0.60;;;0.00;;
68196;SDS011;55019;49.382;11.358;2023-03-25T06:19:43;0.63;;;0.17;;
68196;SDS011;55019;49.382;11.358;2023-03-25T06:22:09;0.93;;;0.20;;
68196;SDS011;55019;49.382;11.358;2023-03-25T06:24:36;1.25;;;0.10;;
68196;SDS011;55019;49.382;11.358;2023-03-25T06:27:21;0.17;;;0.00;;
68196;SDS011;55019;49.382;11.358;2023-03-25T06:29:48;1.33;;;0.10;;
68196;SDS011;55019;49.382;11.358;2023-03-25T06:32:13;0.30;;;0.10;;
68196;SDS011;55019;49.382;11.358;2023-03-25T06:34:40;1.27;;;0.10;;
68196;SDS011;55019;49.382;11.358;2023-03-25T06:37:09;0.32;;;0.08;;
68196;SDS011;55019;49.382;11.358;2023-03-25T06:39:35;0.10;;;0.00;;
68196;SDS011;55019;49.382;11.358;2023-03-25T06:42:14;1.05;;;0.10;;
68196;SDS011;55019;49.382;11.358;2023-03-25T06:45:02;1.58;;;0.00;;
68196;SDS011;55019;49.382;11.358;2023-03-25T06:47:39;0.22;;;0.10;;
68196;SDS011;55019;49.382;11.358;2023-03-25T06:50:05;1.08;;;0.10;;
68196;SDS011;55019;49.382;11.358;2023-03-25T06:52:32;0.47;;;0.00;;
68196;SDS011;55019;49.382;11.358;2023-03-25T06:54:58;0.65;;;0.10;;
68196;SDS011;55019;49.382;11.358;2023-03-25T06:57:24;0.70;;;0.10;;
68196;SDS011;55019;49.382;11.358;2023-03-25T06:59:50;1.40;;;0.10;;
68196;SDS011;55019;49.382;11.358;2023-03-25T07:02:17;0.82;;;0.05;;
68196;SDS011;55019;49.382;11.358;2023-03-25T07:04:42;0.17;;;0.00;;
68196;SDS011;55019;49.382;11.358;2023-03-25T07:07:08;2.05;;;0.08;;
68196;SDS011;55019;49.382;11.358;2023-03-25T07:09:34;1.20;;;0.08;;
68196;SDS011;55019;49.382;11.358;2023-03-25T07:12:03;2.10;;;0.30;;
68196;SDS011;55019;49.382;11.358;2023-03-25T07:14:29;1.40;;;0.10;;
68196;SDS011;55019;49.382;11.358;2023-03-25T07:16:55;0.10;;;0.00;;
68196;SDS011;55019;49.382;11.358;2023-03-25T07:19:21;1.30;;;0.00;;
68196;SDS011;55019;49.382;11.358;2023-03-25T07:21:46;1.08;;;0.10;;
68196;SDS011;55019;49.382;11.358;2023-03-25T07:24:12;0.40;;;0.00;;
68196;SDS011;55019;49.382;11.358;2023-03-25T07:26:38;0.30;;;0.10;;
68196;SDS011;55019;49.382;11.358;2023-03-25T07:29:04;0.68;;;0.10;;
68196;SDS011;55019;49.382;11.358;2023-03-25T07:31:30;0.35;;;0.00;;
68196;SDS011;55019;49.382;11.358;2023-03-25T07:33:56;1.65;;;0.10;;
68196;SDS011;55019;49.382;11.358;2023-03-25T07:36:24;2.65;;;0.45;;
68196;SDS011;55019;49.382;11.358;2023-03-25T07:38:51;0.40;;;0.00;;
68196;SDS011;55019;49.382;11.358;2023-03-25T07:41:17;0.88;;;0.10;;
68196;SDS011;55019;49.382;11.358;2023-03-25T07:44:08;2.15;;;0.20;;
68196;SDS011;55019;49.382;11.358;2023-03-25T07:46:35;1.08;;;0.05;;
68196;SDS011;55019;49.382;11.358;2023-03-25T07:49:01;0.57;;;0.10;;
68196;SDS011;55019;49.382;11.358;2023-03-25T07:51:27;0.20;;;0.00;;
68196;SDS011;55019;49.382;11.358;2023-03-25T07:53:54;0.75;;;0.10;;
68196;SDS011;55019;49.382;11.358;2023-03-25T07:56:20;0.20;;;0.00;;
68196;SDS011;55019;49.382;11.358;2023-03-25T07:58:45;0.20;;;0.00;;
68196;SDS011;55019;49.382;11.358;2023-03-25T08:01:13;2.05;;;0.30;;
68196;SDS011;55019;49.382;11.358;2023-03-25T08:03:40;1.70;;;0.13;;
68196;SDS011;55019;49.382;11.358;2023-03-25T08:06:05;2.28;;;0.10;;
68196;SDS011;55019;49.382;11.358;2023-03-25T08:08:32;1.05;;;0.10;;
68196;SDS011;55019;49.382;11.358;2023-03-25T08:10:58;0.93;;;0.20;;
68196;SDS011;55019;49.382;11.358;2023-03-25T08:13:24;0.98;;;0.20;;
68196;SDS011;55019;49.382;11.358;2023-03-25T08:15:50;1.25;;;0.03;;
68196;SDS011;55019;49.382;11.358;2023-03-25T08:18:16;0.32;;;0.03;;
68196;SDS011;55019;49.382;11.358;2023-03-25T08:20:42;1.05;;;0.10;;
68196;SDS011;55019;49.382;11.358;2023-03-25T08:23:07;0.80;;;0.03;;
68196;SDS011;55019;49.382;11.358;2023-03-25T08:25:38;1.77;;;0.20;;
68196;SDS011;55019;49.382;11.358;2023-03-25T08:28:05;2.65;;;0.63;;
68196;SDS011;55019;49.382;11.358;2023-03-25T08:30:31;1.02;;;0.13;;
68196;SDS011;55019;49.382;11.358;2023-03-25T08:33:05;0.65;;;0.10;;
68196;SDS011;55019;49.382;11.358;2023-03-25T08:35:31;1.92;;;0.50;;
68196;SDS011;55019;49.382;11.358;2023-03-25T08:37:59;2.88;;;0.30;;
68196;SDS011;55019;49.382;11.358;2023-03-25T08:40:26;1.27;;;0.20;;
68196;SDS011;55019;49.382;11.358;2023-03-25T08:42:52;1.35;;;0.20;;
68196;SDS011;55019;49.382;11.358;2023-03-25T08:45:18;3.92;;;0.20;;
68196;SDS011;55019;49.382;11.358;2023-03-25T08:47:43;1.00;;;0.30;;
68196;SDS011;55019;49.382;11.358;2023-03-25T08:50:10;2.05;;;0.08;;
68196;SDS011;55019;49.382;11.358;2023-03-25T08:52:37;3.80;;;0.30;;
68196;SDS011;55019;49.382;11.358;2023-03-25T08:55:03;2.45;;;0.50;;
68196;SDS011;55019;49.382;11.358;2023-03-25T08:57:33;2.05;;;0.10;;
68196;SDS011;55019;49.382;11.358;2023-03-25T09:00:00;3.70;;;0.30;;
68196;SDS011;55019;49.382;11.358;2023-03-25T09:02:27;2.20;;;0.30;;
68196;SDS011;55019;49.382;11.358;2023-03-25T09:04:52;2.53;;;0.20;;
68196;SDS011;55019;49.382;11.358;2023-03-25T09:07:18;1.08;;;0.10;;
68196;SDS011;55019;49.382;11.358;2023-03-25T09:09:44;1.70;;;0.20;;
68196;SDS011;55019;49.382;11.358;2023-03-25T09:12:11;1.13;;;0.20;;
68196;SDS011;55019;49.382;11.358;2023-03-25T09:14:37;3.38;;;0.52;;
68196;SDS011;55019;49.382;11.358;2023-03-25T09:17:03;2.83;;;0.47;;
68196;SDS011;55019;49.382;11.358;2023-03-25T09:21:57;1.55;;;0.28;;
68196;SDS011;55019;49.382;11.358;2023-03-25T09:24:23;3.35;;;0.30;;
68196;SDS011;55019;49.382;11.358;2023-03-25T09:26:49;1.02;;;0.20;;
68196;SDS011;55019;49.382;11.358;2023-03-25T09:29:15;2.05;;;0.10;;
68196;SDS011;55019;49.382;11.358;2023-03-25T09:31:41;2.40;;;0.25;;
68196;SDS011;55019;49.382;11.358;2023-03-25T09:34:07;1.40;;;0.20;;
68196;SDS011;55019;49.382;11.358;2023-03-25T09:36:32;1.20;;;0.30;;
68196;SDS011;55019;49.382;11.358;2023-03-25T09:38:58;0.80;;;0.10;;
68196;SDS011;55019;49.382;11.358;2023-03-25T09:41:40;0.55;;;0.17;;
68196;SDS011;55019;49.382;11.358;2023-03-25T09:44:24;1.02;;;0.10;;
68196;SDS011;55019;49.382;11.358;2023-03-25T09:46:55;1.20;;;0.03;;
68196;SDS011;55019;49.382;11.358;2023-03-25T09:49:25;1.60;;;0.30;;
68196;SDS011;55019;49.382;11.358;2023-03-25T09:52:34;2.28;;;0.25;;
68196;SDS011;55019;49.382;11.358;2023-03-25T09:55:06;0.47;;;0.10;;
68196;SDS011;55019;49.382;11.358;2023-03-25T09:57:39;0.80;;;0.00;;
68196;SDS011;55019;49.382;11.358;2023-03-25T10:00:14;0.35;;;0.10;;
68196;SDS011;55019;49.382;11.358;2023-03-25T10:05:38;0.28;;;0.10;;
68196;SDS011;55019;49.382;11.358;2023-03-25T10:13:26;0.65;;;0.05;;
68196;SDS011;55019;49.382;11.358;2023-03-25T10:18:42;0.70;;;0.10;;
68196;SDS011;55019;49.382;11.358;2023-03-25T10:21:14;1.67;;;0.00;;
68196;SDS011;55019;49.382;11.358;2023-03-25T10:24:05;0.47;;;0.10;;
68196;SDS011;55019;49.382;11.358;2023-03-25T10:29:35;0.88;;;0.20;;
68196;SDS011;55019;49.382;11.358;2023-03-25T10:32:09;1.63;;;0.30;;
68196;SDS011;55019;49.382;11.358;2023-03-25T10:34:43;0.50;;;0.20;;
68196;SDS011;55019;49.382;11.358;2023-03-25T10:37:16;0.57;;;0.10;;
68196;SDS011;55019;49.382;11.358;2023-03-25T10:40:09;1.15;;;0.10;;
68196;SDS011;55019;49.382;11.358;2023-03-25T10:42:39;2.03;;;0.40;;
68196;SDS011;55019;49.382;11.358;2023-03-25T10:45:12;1.98;;;0.30;;
68196;SDS011;55019;49.382;11.358;2023-03-25T10:47:40;1.45;;;0.20;;
68196;SDS011;55019;49.382;11.358;2023-03-25T10:50:13;1.23;;;0.25;;
68196;SDS011;55019;49.382;11.358;2023-03-25T10:52:40;0.25;;;0.17;;
68196;SDS011;55019;49.382;11.358;2023-03-25T10:55:20;1.88;;;0.10;;
68196;SDS011;55019;49.382;11.358;2023-03-25T10:57:49;1.08;;;0.20;;
68196;SDS011;55019;49.382;11.358;2023-03-25T11:00:16;1.15;;;0.08;;
68196;SDS011;55019;49.382;11.358;2023-03-25T11:02:43;1.17;;;0.05;;
68196;SDS011;55019;49.382;11.358;2023-03-25T11:05:10;1.20;;;0.20;;
68196;SDS011;55019;49.382;11.358;2023-03-25T11:07:42;1.27;;;0.17;;
68196;SDS011;55019;49.382;11.358;2023-03-25T11:12:41;1.13;;;0.10;;
68196;SDS011;55019;49.382;11.358;2023-03-25T11:15:22;1.90;;;0.20;;
68196;SDS011;55019;49.382;11.358;2023-03-25T11:17:54;1.55;;;0.22;;
68196;SDS011;55019;49.382;11.358;2023-03-25T11:20:27;0.63;;;0.22;;
68196;SDS011;55019;49.382;11.358;2023-03-25T11:22:58;1.95;;;0.20;;
68196;SDS011;55019;49.382;11.358;2023-03-25T11:25:44;2.42;;;0.38;;
68196;SDS011;55019;49.382;11.358;2023-03-25T11:28:17;1.50;;;0.20;;
68196;SDS011;55019;49.382;11.358;2023-03-25T11:31:04;0.93;;;0.10;;
68196;SDS011;55019;49.382;11.358;2023-03-25T11:33:35;0.47;;;0.28;;
68196;SDS011;55019;49.382;11.358;2023-03-25T11:36:24;0.20;;;0.10;;
68196;SDS011;55019;49.382;11.358;2023-03-25T11:38:52;1.08;;;0.00;;
68196;SDS011;55019;49.382;11.358;2023-03-25T11:41:22;0.20;;;0.00;;
68196;SDS011;55019;49.382;11.358;2023-03-25T11:43:48;0.45;;;0.00;;
68196;SDS011;55019;49.382;11.358;2023-03-25T11:46:15;0.30;;;0.03;;
68196;SDS011;55019;49.382;11.358;2023-03-25T11:48:43;0.20;;;0.10;;
68196;SDS011;55019;49.382;11.358;2023-03-25T11:51:24;1.38;;;0.10;;
68196;SDS011;55019;49.382;11.358;2023-03-25T11:53:55;0.93;;;0.17;;
68196;SDS011;55019;49.382;11.358;2023-03-25T11:56:28;0.50;;;0.35;;
68196;SDS011;55019;49.382;11.358;2023-03-25T11:59:07;0.20;;;0.10;;
68196;SDS011;55019;49.382;11.358;2023-03-25T12:01:45;1.10;;;0.03;;
68196;SDS011;55019;49.382;11.358;2023-03-25T12:04:13;2.92;;;0.10;;
68196;SDS011;55019;49.382;11.358;2023-03-25T12:09:33;1.00;;;0.10;;
68196;SDS011;55019;49.382;11.358;2023-03-25T12:15:29;0.03;;;0.00;;
68196;SDS011;55019;49.382;11.358;2023-03-25T12:20:38;1.35;;;0.10;;
68196;SDS011;55019;49.382;11.358;2023-03-25T12:48:14;1.17;;;0.28;;
68196;SDS011;55019;49.382;11.358;2023-03-25T12:59:21;0.70;;;0.10;;
68196;SDS011;55019;49.382;11.358;2023-03-25T13:07:17;0.63;;;0.00;;
68196;SDS011;55019;49.382;11.358;2023-03-25T13:09:56;0.13;;;0.00;;
68196;SDS011;55019;49.382;11.358;2023-03-25T13:15:34;0.10;;;0.00;;
68196;SDS011;55019;49.382;11.358;2023-03-25T13:20:44;0.65;;;0.00;;
68196;SDS011;55019;49.382;11.358;2023-03-25T13:23:16;0.20;;;0.00;;
68196;SDS011;55019;49.382;11.358;2023-03-25T13:25:50;0.75;;;0.10;;
68196;SDS011;55019;49.382;11.358;2023-03-25T13:28:22;0.60;;;0.05;;
68196;SDS011;55019;49.382;11.358;2023-03-25T13:30:53;0.50;;;0.10;;
68196;SDS011;55019;49.382;11.358;2023-03-25T13:33:27;1.98;;;0.20;;
68196;SDS011;55019;49.382;11.358;2023-03-25T13:36:16;1.08;;;0.10;;
68196;SDS011;55019;49.382;11.358;2023-03-25T13:38:51;0.28;;;0.00;;
68196;SDS011;55019;49.382;11.358;2023-03-25T13:44:24;0.63;;;0.10;;
68196;SDS011;55019;49.382;11.358;2023-03-25T13:47:00;1.45;;;0.00;;
68196;SDS011;55019;49.382;11.358;2023-03-25T13:52:06;0.77;;;0.03;;
68196;SDS011;55019;49.382;11.358;2023-03-25T13:54:43;0.22;;;0.20;;
68196;SDS011;55019;49.382;11.358;2023-03-25T13:57:37;0.88;;;0.10;;
68196;SDS011;55019;49.382;11.358;2023-03-25T14:03:38;0.57;;;0.17;;
68196;SDS011;55019;49.382;11.358;2023-03-25T14:11:37;0.47;;;0.10;;
68196;SDS011;55019;49.382;11.358;2023-03-25T14:14:11;0.98;;;0.10;;
68196;SDS011;55019;49.382;11.358;2023-03-25T14:16:42;0.60;;;0.10;;
68196;SDS011;55019;49.382;11.358;2023-03-25T14:19:15;0.38;;;0.25;;
68196;SDS011;55019;49.382;11.358;2023-03-25T14:21:48;1.50;;;0.30;;
68196;SDS011;55019;49.382;11.358;2023-03-25T14:26:50;1.65;;;0.13;;
68196;SDS011;55019;49.382;11.358;2023-03-25T14:34:42;0.40;;;0.00;;
68196;SDS011;55019;49.382;11.358;2023-03-25T14:37:16;0.82;;;0.10;;
68196;SDS011;55019;49.382;11.358;2023-03-25T14:39:57;0.88;;;0.20;;
68196;SDS011;55019;49.382;11.358;2023-03-25T14:42:27;0.45;;;0.10;;
68196;SDS011;55019;49.382;11.358;2023-03-25T14:47:59;0.65;;;0.10;;
68196;SDS011;55019;49.382;11.358;2023-03-25T14:50:30;1.00;;;0.10;;
68196;SDS011;55019;49.382;11.358;2023-03-25T14:53:00;0.80;;;0.17;;
68196;SDS011;55019;49.382;11.358;2023-03-25T14:55:35;1.75;;;0.10;;
68196;SDS011;55019;49.382;11.358;2023-03-25T14:58:26;0.45;;;0.10;;
68196;SDS011;55019;49.382;11.358;2023-03-25T15:06:50;1.10;;;0.10;;
68196;SDS011;55019;49.382;11.358;2023-03-25T15:26:32;1.05;;;0.30;;
68196;SDS011;55019;49.382;11.358;2023-03-25T15:37:39;0.38;;;0.10;;
68196;SDS011;55019;49.382;11.358;2023-03-25T15:43:19;0.13;;;0.00;;
68196;SDS011;55019;49.382;11.358;2023-03-25T15:54:30;0.98;;;0.05;;
68196;SDS011;55019;49.382;11.358;2023-03-25T15:57:10;0.60;;;0.13;;
68196;SDS011;55019;49.382;11.358;2023-03-25T16:00:00;0.52;;;0.10;;
68196;SDS011;55019;49.382;11.358;2023-03-25T16:02:58;0.38;;;0.05;;
68196;SDS011;55019;49.382;11.358;2023-03-25T16:05:31;1.08;;;0.10;;
68196;SDS011;55019;49.382;11.358;2023-03-25T16:08:03;2.05;;;0.47;;
68196;SDS011;55019;49.382;11.358;2023-03-25T16:10:50;1.58;;;0.15;;
68196;SDS011;55019;49.382;11.358;2023-03-25T16:13:16;0.10;;;0.00;;
68196;SDS011;55019;49.382;11.358;2023-03-25T16:15:52;0.75;;;0.20;;
68196;SDS011;55019;49.382;11.358;2023-03-25T16:18:20;0.77;;;0.20;;
68196;SDS011;55019;49.382;11.358;2023-03-25T16:20:52;0.98;;;0.40;;
68196;SDS011;55019;49.382;11.358;2023-03-25T16:23:21;0.50;;;0.10;;
68196;SDS011;55019;49.382;11.358;2023-03-25T16:25:49;0.93;;;0.20;;
68196;SDS011;55019;49.382;11.358;2023-03-25T16:29:04;1.52;;;0.25;;
68196;SDS011;55019;49.382;11.358;2023-03-25T16:31:09;1.23;;;0.30;;
68196;SDS011;55019;49.382;11.358;2023-03-25T16:33:51;0.90;;;0.30;;
68196;SDS011;55019;49.382;11.358;2023-03-25T16:36:23;0.65;;;0.20;;
68196;SDS011;55019;49.382;11.358;2023-03-25T16:38:49;1.73;;;0.30;;
68196;SDS011;55019;49.382;11.358;2023-03-25T16:41:14;1.83;;;0.20;;
68196;SDS011;55019;49.382;11.358;2023-03-25T16:43:40;0.20;;;0.10;;
68196;SDS011;55019;49.382;11.358;2023-03-25T16:46:07;1.38;;;0.13;;
68196;SDS011;55019;49.382;11.358;2023-03-25T16:48:36;0.52;;;0.52;;
68196;SDS011;55019;49.382;11.358;2023-03-25T16:51:14;1.85;;;0.20;;
68196;SDS011;55019;49.382;11.358;2023-03-25T16:53:42;0.20;;;0.10;;
68196;SDS011;55019;49.382;11.358;2023-03-25T16:58:35;2.33;;;0.30;;
68196;SDS011;55019;49.382;11.358;2023-03-25T17:01:13;0.35;;;0.10;;
68196;SDS011;55019;49.382;11.358;2023-03-25T17:03:44;0.20;;;0.10;;
68196;SDS011;55019;49.382;11.358;2023-03-25T17:06:15;1.23;;;0.40;;
68196;SDS011;55019;49.382;11.358;2023-03-25T17:08:51;1.00;;;0.20;;
68196;SDS011;55019;49.382;11.358;2023-03-25T17:11:20;1.30;;;0.17;;
68196;SDS011;55019;49.382;11.358;2023-03-25T17:13:47;1.60;;;0.10;;
68196;SDS011;55019;49.382;11.358;2023-03-25T17:16:20;0.30;;;0.13;;
68196;SDS011;55019;49.382;11.358;2023-03-25T17:18:47;1.30;;;0.30;;
68196;SDS011;55019;49.382;11.358;2023-03-25T17:21:22;0.45;;;0.08;;
68196;SDS011;55019;49.382;11.358;2023-03-25T17:23:52;1.45;;;0.10;;
68196;SDS011;55019;49.382;11.358;2023-03-25T17:26:21;0.20;;;0.00;;
68196;SDS011;55019;49.382;11.358;2023-03-25T17:33:58;0.80;;;0.17;;
68196;SDS011;55019;49.382;11.358;2023-03-25T17:36:30;2.33;;;0.60;;
68196;SDS011;55019;49.382;11.358;2023-03-25T17:38:59;1.92;;;0.22;;
68196;SDS011;55019;49.382;11.358;2023-03-25T17:41:34;0.82;;;0.10;;
68196;SDS011;55019;49.382;11.358;2023-03-25T17:44:01;0.88;;;0.10;;
68196;SDS011;55019;49.382;11.358;2023-03-25T17:46:28;1.08;;;0.38;;
68196;SDS011;55019;49.382;11.358;2023-03-25T17:48:55;1.90;;;0.38;;
68196;SDS011;55019;49.382;11.358;2023-03-25T17:51:23;1.60;;;0.10;;
68196;SDS011;55019;49.382;11.358;2023-03-25T17:53:50;0.40;;;0.10;;
68196;SDS011;55019;49.382;11.358;2023-03-25T17:56:18;0.32;;;0.10;;
68196;SDS011;55019;49.382;11.358;2023-03-25T17:58:59;0.85;;;0.22;;
68196;SDS011;55019;49.382;11.358;2023-03-25T18:01:26;1.30;;;0.10;;
68196;SDS011;55019;49.382;11.358;2023-03-25T18:03:54;1.23;;;0.20;;
68196;SDS011;55019;49.382;11.358;2023-03-25T18:06:20;1.75;;;0.10;;
68196;SDS011;55019;49.382;11.358;2023-03-25T18:08:46;2.05;;;0.20;;